Time;durP1;ratioP1;P1;durP2;ratioP2;P2;SDS_P1;SDS_P2;PMS_P1;PMS_P2;Temp;Humidity;BMP_temperature;BMP_pressure;BME280_temperature;BME280_humidity;BME280_pressure;Samples;Min_cycle;Max_cycle;Signal;HPM_P1;HPM_P2
2022/09/23 00:02:06;;;;;;;6.60;5.10;;;;;;;8.21;76.19;100668.84;130515;1267;108998;-79
2022/09/23 00:05:12;;;;;;;8.90;5.00;;;;;;;8.20;76.30;100670.75;130362;1267;108602;-79
2022/09/23 00:08:17;;;;;;;7.90;5.40;;;;;;;8.18;76.24;100671.24;130378;1268;108720;-82
2022/09/23 00:11:25;;;;;;;12.40;7.60;;;;;;;8.13;76.53;100667.23;130659;1267;108247;-83
2022/09/23 00:14:30;;;;;;;13.50;9.10;;;;;;;8.09;76.91;100661.58;130648;1267;108653;-85
2022/09/23 00:17:36;;;;;;;11.10;7.00;;;;;;;8.05;77.17;100661.88;130442;1268;108939;-84
2022/09/23 00:20:41;;;;;;;8.30;5.90;;;;;;;8.01;76.95;100658.79;130464;1268;108735;-85
2022/09/23 00:23:47;;;;;;;7.10;5.00;;;;;;;7.96;77.25;100660.11;130438;1267;108669;-84
2022/09/23 00:26:52;;;;;;;7.20;4.80;;;;;;;7.93;77.19;100657.23;130404;1267;108480;-85
2022/09/23 00:29:57;;;;;;;6.00;4.60;;;;;;;7.90;77.02;100657.07;130425;1267;108661;-80
2022/09/23 00:33:03;;;;;;;7.40;5.30;;;;;;;7.90;76.91;100654.10;130464;1267;108763;-79
2022/09/23 00:36:14;;;;;;;7.20;4.90;;;;;;;7.91;76.76;100651.76;130422;1268;108731;-79
2022/09/23 00:39:19;;;;;;;6.90;5.00;;;;;;;7.90;76.80;100648.95;130488;1267;109684;-79
2022/09/23 00:42:26;;;;;;;8.50;5.40;;;;;;;7.88;76.81;100648.27;130370;1267;108737;-77
2022/09/23 00:45:31;;;;;;;7.70;5.40;;;;;;;7.84;76.66;100649.44;130335;1267;108908;-79
2022/09/23 00:48:41;;;;;;;6.30;4.60;;;;;;;7.79;76.59;100650.55;130426;1267;108861;-79
2022/09/23 00:51:53;;;;;;;7.40;5.30;;;;;;;7.73;76.33;100649.99;130262;1267;108856;-78
2022/09/23 00:55:00;;;;;;;7.80;5.10;;;;;;;7.66;76.50;100652.67;130392;1267;108712;-79
2022/09/23 00:58:09;;;;;;;7.20;5.20;;;;;;;7.60;76.54;100648.50;130546;1267;108708;-84
2022/09/23 01:01:15;;;;;;;6.20;4.50;;;;;;;7.55;76.23;100651.98;130459;1267;108737;-88
2022/09/23 01:04:22;;;;;;;5.90;4.10;;;;;;;7.47;76.23;100649.38;130472;1267;108917;-87
2022/09/23 01:07:28;;;;;;;9.20;5.00;;;;;;;7.45;76.46;100648.30;130505;1268;107407;-88
2022/09/23 01:10:46;;;;;;;6.30;4.70;;;;;;;7.43;76.21;100644.56;130535;1267;108823;-89
2022/09/23 01:14:02;;;;;;;6.10;4.60;;;;;;;7.43;76.20;100644.05;131331;1267;107623;-89
2022/09/23 01:17:16;;;;;;;8.10;5.30;;;;;;;7.41;76.26;100639.05;130579;1268;107535;-88
2022/09/23 01:20:41;;;;;;;9.70;5.80;;;;;;;7.38;76.15;100640.34;130477;1268;107687;-88
2022/09/23 01:24:17;;;;;;;9.10;5.70;;;;;;;7.34;76.05;100645.71;130476;1268;108863;-88
2022/09/23 01:27:47;;;;;;;7.40;5.20;;;;;;;7.27;76.11;100644.43;130989;1267;107447;-88
2022/09/23 01:31:02;;;;;;;9.40;5.80;;;;;;;7.22;76.24;100647.51;130532;1267;107520;-83
2022/09/23 01:34:14;;;;;;;7.20;5.10;;;;;;;7.18;76.06;100651.39;130500;1267;108614;-83
2022/09/23 01:37:31;;;;;;;8.40;5.90;;;;;;;7.13;76.22;100655.85;130575;1267;109722;-82
2022/09/23 01:40:45;;;;;;;8.00;5.70;;;;;;;7.07;76.45;100655.03;130398;1267;108708;-83
2022/09/23 01:43:58;;;;;;;8.00;4.90;;;;;;;7.03;76.69;100650.23;130566;1267;108730;-83
2022/09/23 01:47:09;;;;;;;6.00;4.70;;;;;;;7.01;76.67;100653.00;130484;1267;108764;-82
2022/09/23 01:53:44;;;;;;;7.50;4.80;;;;;;;7.05;76.78;100648.09;130327;1269;108701;-82
2022/09/23 01:56:55;;;;;;;6.20;4.60;;;;;;;7.07;76.63;100645.45;130555;1267;108901;-82
2022/09/23 02:00:11;;;;;;;7.30;5.30;;;;;;;7.05;76.16;100641.91;130616;1268;108453;-83
2022/09/23 02:03:26;;;;;;;5.20;4.30;;;;;;;7.03;76.49;100641.36;131714;1267;109765;-80
2022/09/23 02:06:37;;;;;;;6.30;4.80;;;;;;;7.01;76.54;100640.87;130849;1267;108541;-77
2022/09/23 02:09:49;;;;;;;7.20;4.80;;;;;;;6.95;76.49;100640.08;130462;1268;108692;-81
2022/09/23 02:13:00;;;;;;;7.30;4.90;;;;;;;6.91;76.28;100640.92;130452;1267;108766;-80
2022/09/23 02:16:12;;;;;;;6.20;4.60;;;;;;;6.87;76.32;100639.08;130429;1267;108607;-82
2022/09/23 02:19:27;;;;;;;7.20;4.50;;;;;;;6.80;76.14;100642.51;130569;1268;108870;-84
2022/09/23 02:22:39;;;;;;;6.30;4.50;;;;;;;6.75;76.19;100645.31;130494;1268;107708;-83
2022/09/23 02:26:03;;;;;;;7.30;4.30;;;;;;;6.75;76.06;100643.23;131504;1269;108619;-85
2022/09/23 02:29:17;;;;;;;5.90;4.00;;;;;;;6.75;75.86;100640.59;130536;1267;108867;-83
2022/09/23 02:32:30;;;;;;;6.60;5.10;;;;;;;6.75;76.27;100644.26;130597;1266;107722;-83
2022/09/23 02:35:39;;;;;;;6.70;4.70;;;;;;;6.75;76.04;100644.09;130607;1267;108852;-80
2022/09/23 02:38:50;;;;;;;6.90;4.60;;;;;;;6.71;75.70;100640.00;130532;1267;108765;-84
2022/09/23 02:42:02;;;;;;;7.10;4.30;;;;;;;6.66;76.09;100643.36;130507;1269;108737;-81
2022/09/23 02:45:08;;;;;;;5.40;4.40;;;;;;;6.62;75.87;100636.44;130462;1268;108926;-81
2022/09/23 02:48:21;;;;;;;6.60;4.90;;;;;;;6.56;76.07;100639.55;130471;1268;109103;-80
2022/09/23 02:51:27;;;;;;;7.00;4.70;;;;;;;6.53;76.04;100640.52;130495;1268;108824;-80
2022/09/23 02:54:34;;;;;;;8.00;5.00;;;;;;;6.48;75.90;100638.19;130490;1267;108502;-78
2022/09/23 02:57:39;;;;;;;7.10;5.10;;;;;;;6.43;76.00;100637.36;130589;1268;108734;-80
2022/09/23 03:01:03;;;;;;;7.40;5.20;;;;;;;6.37;76.12;100635.54;130482;1267;109212;-79
2022/09/23 03:04:18;;;;;;;9.00;4.40;;;;;;;6.30;76.12;100628.95;130562;1268;108739;-80
2022/09/23 03:07:33;;;;;;;7.20;5.00;;;;;;;6.26;75.96;100631.20;130378;1268;108651;-80
2022/09/23 03:10:47;;;;;;;6.60;4.50;;;;;;;6.23;76.07;100636.70;130245;1268;108605;-79
2022/09/23 03:14:05;;;;;;;6.40;4.70;;;;;;;6.24;75.98;100636.85;130352;1267;108702;-79
2022/09/23 03:17:18;;;;;;;6.30;4.60;;;;;;;6.25;75.54;100633.40;130306;1268;108604;-79
2022/09/23 03:20:31;;;;;;;8.50;4.90;;;;;;;6.22;75.75;100635.08;130403;1268;108770;-80
2022/09/23 03:23:39;;;;;;;7.80;5.30;;;;;;;6.19;75.83;100636.70;130406;1268;108270;-79
2022/09/23 03:26:47;;;;;;;8.40;5.70;;;;;;;6.15;75.68;100639.62;130584;1268;108589;-83
2022/09/23 03:29:55;;;;;;;9.60;5.90;;;;;;;6.07;75.45;100649.05;130419;1268;109506;-79
2022/09/23 03:33:03;;;;;;;8.80;5.50;;;;;;;6.02;75.43;100649.96;130693;1268;108722;-84
2022/09/23 03:39:40;;;;;;;9.40;5.10;;;;;;;5.94;75.71;100647.70;130532;1268;108870;-78
2022/09/23 03:42:47;;;;;;;8.60;5.80;;;;;;;5.90;75.86;100648.56;130286;1267;108432;-79
2022/09/23 03:45:56;;;;;;;7.80;5.70;;;;;;;5.86;76.11;100648.81;130377;1268;108614;-80
2022/09/23 03:49:09;;;;;;;8.60;5.50;;;;;;;5.85;76.28;100644.27;130581;1268;108822;-77
2022/09/23 03:52:14;;;;;;;9.10;5.50;;;;;;;5.89;76.25;100639.38;130311;1267;108678;-76
2022/09/23 03:55:21;;;;;;;10.60;6.80;;;;;;;5.94;76.47;100640.31;130446;1268;108772;-79
2022/09/23 03:58:26;;;;;;;11.30;6.90;;;;;;;6.00;77.34;100641.80;130382;1268;108723;-80
2022/09/23 04:01:32;;;;;;;9.90;6.80;;;;;;;6.06;77.00;100638.23;130352;1268;109190;-80
2022/09/23 04:04:39;;;;;;;11.00;7.00;;;;;;;6.12;77.09;100639.34;130386;1268;109234;-79
2022/09/23 04:07:45;;;;;;;14.60;8.10;;;;;;;6.17;77.19;100630.99;130358;1267;108756;-79
2022/09/23 04:10:51;;;;;;;20.80;10.70;;;;;;;6.23;78.04;100633.38;130347;1268;108693;-78
2022/09/23 04:13:58;;;;;;;12.60;8.00;;;;;;;6.28;79.70;100630.52;130363;1267;108733;-80
2022/09/23 04:17:03;;;;;;;12.80;8.00;;;;;;;6.28;80.08;100633.02;130252;1268;109002;-78
2022/09/23 04:20:10;;;;;;;24.80;12.30;;;;;;;6.31;80.52;100635.94;130265;1268;108820;-76
2022/09/23 04:23:15;;;;;;;16.20;9.30;;;;;;;6.37;80.93;100633.39;130409;1268;109083;-80
2022/09/23 04:26:21;;;;;;;15.40;9.20;;;;;;;6.47;80.68;100631.24;130557;1268;107639;-79
2022/09/23 04:29:27;;;;;;;16.50;9.10;;;;;;;6.52;81.05;100632.98;130503;1268;108736;-80
2022/09/23 04:32:32;;;;;;;8.30;5.90;;;;;;;6.51;82.00;100637.41;130458;1267;107356;-77
2022/09/23 04:35:38;;;;;;;9.70;6.60;;;;;;;6.48;82.24;100638.35;130362;1267;108714;-78
2022/09/23 04:38:46;;;;;;;11.20;7.30;;;;;;;6.51;81.96;100639.38;130343;1267;108645;-79
2022/09/23 04:41:51;;;;;;;13.10;7.90;;;;;;;6.62;82.22;100642.48;130521;1268;108866;-78
2022/09/23 04:44:57;;;;;;;17.40;7.30;;;;;;;6.67;82.25;100644.00;130365;1268;108769;-73
2022/09/23 04:48:03;;;;;;;17.60;9.40;;;;;;;6.73;82.21;100639.52;130429;1268;108670;-74
2022/09/23 04:51:11;;;;;;;17.00;9.20;;;;;;;6.78;82.38;100640.17;130266;1268;108730;-76
2022/09/23 04:54:16;;;;;;;14.40;8.30;;;;;;;6.86;82.50;100634.93;130412;1268;107805;-72
2022/09/23 04:57:23;;;;;;;11.40;7.10;;;;;;;6.93;82.24;100629.11;130351;1268;108687;-75
2022/09/23 05:00:28;;;;;;;12.20;7.90;;;;;;;7.03;82.38;100628.66;130339;1268;108632;-75
2022/09/23 05:03:34;;;;;;;10.50;7.40;;;;;;;7.20;82.13;100631.77;130362;1268;108709;-76
2022/09/23 05:06:43;;;;;;;9.70;7.10;;;;;;;7.37;81.92;100631.97;130388;1267;108794;-73
2022/09/23 05:09:49;;;;;;;12.10;7.40;;;;;;;7.53;81.61;100633.16;130348;1268;107575;-77
2022/09/23 05:12:57;;;;;;;11.70;6.50;;;;;;;7.65;81.49;100627.25;130512;1268;108808;-75
2022/09/23 05:16:05;;;;;;;9.20;6.30;;;;;;;7.78;81.52;100632.17;130317;1268;108759;-74
2022/09/23 05:19:12;;;;;;;10.80;7.60;;;;;;;7.90;81.62;100632.12;130389;1268;108259;-74
2022/09/23 05:22:17;;;;;;;9.50;6.90;;;;;;;8.03;81.37;100633.00;130400;1268;108542;-73
2022/09/23 05:25:23;;;;;;;9.90;7.10;;;;;;;8.13;81.17;100638.50;130400;1268;108786;-74
2022/09/23 05:28:31;;;;;;;11.90;8.40;;;;;;;8.17;81.38;100631.79;130485;1268;109998;-74
2022/09/23 05:31:37;;;;;;;14.80;7.60;;;;;;;8.22;81.45;100638.15;131275;1268;108823;-75
2022/09/23 05:34:42;;;;;;;13.90;10.20;;;;;;;8.28;81.36;100634.47;130373;1268;109441;-75
2022/09/23 05:37:48;;;;;;;15.30;11.00;;;;;;;8.16;81.64;100643.46;130296;1268;108945;-74
2022/09/23 05:40:58;;;;;;;10.70;7.70;;;;;;;8.02;81.97;100644.36;130155;1268;108784;-74
2022/09/23 05:44:04;;;;;;;10.00;7.50;;;;;;;8.03;82.27;100644.52;130355;1268;107530;-75
2022/09/23 05:47:09;;;;;;;11.40;8.00;;;;;;;8.18;82.08;100643.42;130391;1267;108828;-73
2022/09/23 05:50:15;;;;;;;10.10;6.90;;;;;;;8.30;82.26;100640.82;130310;1267;108651;-74
2022/09/23 05:53:20;;;;;;;11.30;8.10;;;;;;;8.41;81.90;100645.58;130192;1268;108829;-74
2022/09/23 05:56:28;;;;;;;12.90;7.90;;;;;;;8.36;81.98;100643.56;130213;1268;108615;-73
2022/09/23 05:59:33;;;;;;;11.30;7.70;;;;;;;8.30;82.08;100644.41;130239;1268;109549;-73
2022/09/23 06:02:38;;;;;;;9.60;6.70;;;;;;;8.37;82.23;100646.67;130325;1268;108815;-73
2022/09/23 06:05:44;;;;;;;8.20;6.20;;;;;;;8.48;82.40;100642.34;130368;1267;108780;-74
2022/09/23 06:08:50;;;;;;;9.80;7.50;;;;;;;8.71;82.36;100647.73;130218;1268;108981;-74
2022/09/23 06:11:55;;;;;;;13.00;8.00;;;;;;;8.86;82.16;100648.69;130431;1267;108721;-73
2022/09/23 06:15:00;;;;;;;11.60;7.70;;;;;;;8.98;82.11;100648.71;130398;1267;108823;-73
2022/09/23 06:18:07;;;;;;;11.00;8.10;;;;;;;9.10;81.95;100645.00;130317;1268;108703;-74
2022/09/23 06:21:14;;;;;;;12.40;8.00;;;;;;;9.19;82.17;100645.46;130325;1267;109152;-74
2022/09/23 06:24:20;;;;;;;10.50;7.80;;;;;;;9.29;82.28;100646.58;130351;1267;108886;-73
2022/09/23 06:27:26;;;;;;;8.90;6.80;;;;;;;9.33;82.33;100647.11;130246;1267;108717;-74
2022/09/23 06:30:33;;;;;;;8.10;5.90;;;;;;;9.44;82.22;100650.59;130200;1268;107293;-74
2022/09/23 06:33:39;;;;;;;10.60;8.00;;;;;;;9.55;82.19;100658.46;130371;1267;108724;-73
2022/09/23 06:36:45;;;;;;;12.70;7.60;;;;;;;9.63;82.41;100657.60;130387;1268;108225;-74
2022/09/23 06:39:51;;;;;;;10.70;7.80;;;;;;;9.57;82.32;100658.17;130523;1267;108688;-74
2022/09/23 06:43:01;;;;;;;10.40;7.70;;;;;;;9.55;82.74;100651.34;130458;1268;108477;-73
2022/09/23 06:46:08;;;;;;;10.10;8.20;;;;;;;9.67;82.75;100652.51;130379;1267;107762;-74
2022/09/23 06:49:14;;;;;;;10.80;7.90;;;;;;;9.82;82.52;100650.58;130334;1268;108708;-74
2022/09/23 06:52:19;;;;;;;9.20;6.40;;;;;;;9.94;82.63;100651.94;130169;1268;107688;-73
2022/09/23 06:55:27;;;;;;;8.60;6.80;;;;;;;10.10;82.28;100652.60;130362;1267;108865;-75
2022/09/23 06:58:34;;;;;;;9.90;7.50;;;;;;;10.28;82.22;100656.70;130378;1267;109135;-74
2022/09/23 07:01:40;;;;;;;11.00;8.40;;;;;;;10.47;82.01;100649.65;130490;1268;108623;-75
2022/09/23 07:04:45;;;;;;;10.80;8.60;;;;;;;10.59;82.14;100658.68;130275;1268;108983;-75
2022/09/23 07:07:52;;;;;;;11.70;9.40;;;;;;;10.66;81.79;100658.41;130355;1268;108951;-75
2022/09/23 07:10:59;;;;;;;11.00;9.10;;;;;;;10.71;81.98;100657.41;130321;1268;108631;-75
2022/09/23 07:14:04;;;;;;;9.80;7.70;;;;;;;10.72;82.13;100658.18;130419;1267;108788;-75
2022/09/23 07:17:11;;;;;;;11.30;8.30;;;;;;;10.83;82.25;100659.45;130323;1268;108709;-75
2022/09/23 07:20:17;;;;;;;12.20;9.20;;;;;;;10.91;82.01;100656.86;130171;1268;108563;-74
2022/09/23 07:23:22;;;;;;;12.60;9.80;;;;;;;11.05;82.23;100656.30;130279;1268;108755;-75
2022/09/23 07:26:28;;;;;;;11.60;9.10;;;;;;;11.15;81.58;100656.73;130331;1267;108487;-73
2022/09/23 07:29:33;;;;;;;12.70;10.20;;;;;;;11.29;81.93;100656.28;130166;1268;107498;-73
2022/09/23 07:32:39;;;;;;;15.00;11.10;;;;;;;11.50;81.97;100659.95;130457;1267;108940;-74
2022/09/23 07:35:44;;;;;;;16.60;12.00;;;;;;;11.68;81.78;100660.17;130229;1268;108847;-75
2022/09/23 07:38:49;;;;;;;17.00;11.90;;;;;;;11.75;81.25;100654.84;130377;1267;108723;-75
2022/09/23 07:41:55;;;;;;;13.50;10.60;;;;;;;11.73;81.46;100655.11;130338;1267;108000;-74
2022/09/23 07:45:01;;;;;;;13.50;9.60;;;;;;;12.01;81.78;100653.27;130311;1267;108530;-74
2022/09/23 07:48:06;;;;;;;14.80;11.30;;;;;;;12.22;81.52;100650.64;130454;1267;108843;-74
2022/09/23 07:51:16;;;;;;;16.80;12.10;;;;;;;12.30;81.03;100648.39;130358;1267;108769;-74
2022/09/23 07:54:24;;;;;;;15.60;12.20;;;;;;;12.28;81.44;100646.33;130477;1267;108713;-74
2022/09/23 07:57:29;;;;;;;17.20;12.70;;;;;;;12.34;81.41;100642.08;130325;1268;108670;-74
2022/09/23 08:00:35;;;;;;;16.10;12.70;;;;;;;12.31;81.31;100643.69;130240;1268;108725;-73
2022/09/23 08:03:42;;;;;;;19.00;14.90;;;;;;;12.25;81.16;100643.35;130438;1267;108654;-73
2022/09/23 08:06:49;;;;;;;21.30;15.60;;;;;;;12.13;81.05;100640.61;130367;1267;108913;-73
2022/09/23 08:09:55;;;;;;;19.40;13.30;;;;;;;12.08;81.08;100640.75;130383;1267;109203;-73
2022/09/23 08:13:02;;;;;;;22.60;15.60;;;;;;;12.22;81.59;100640.47;130362;1267;108729;-73
2022/09/23 08:16:08;;;;;;;22.10;16.20;;;;;;;12.55;81.79;100633.92;130404;1267;108732;-74
2022/09/23 08:19:14;;;;;;;21.10;16.40;;;;;;;12.94;81.78;100634.00;130438;1267;108694;-74
2022/09/23 08:22:19;;;;;;;27.20;18.50;;;;;;;13.19;79.78;100637.14;130395;1268;108842;-74
2022/09/23 08:25:25;;;;;;;25.00;19.70;;;;;;;13.11;79.67;100634.96;130326;1267;108816;-74
2022/09/23 08:28:32;;;;;;;27.00;22.20;;;;;;;13.06;79.89;100636.75;130568;1267;108730;-74
2022/09/23 08:31:38;;;;;;;25.40;20.70;;;;;;;13.02;79.51;100632.84;130365;1267;109246;-74
2022/09/23 08:34:43;;;;;;;21.00;17.40;;;;;;;13.03;80.04;100634.02;130424;1267;109578;-74
2022/09/23 08:37:48;;;;;;;21.40;16.70;;;;;;;13.09;80.26;100629.83;130235;1268;108859;-74
2022/09/23 08:41:07;;;;;;;15.50;12.90;;;;;;;13.00;79.52;100628.55;130307;1267;107240;-74
2022/09/23 08:44:17;;;;;;;15.50;12.70;;;;;;;12.97;79.73;100629.80;130343;1267;108976;-74
2022/09/23 08:47:28;;;;;;;12.20;10.30;;;;;;;13.04;80.16;100631.04;130326;1268;108429;-74
2022/09/23 08:50:40;;;;;;;13.50;11.00;;;;;;;13.23;79.67;100631.88;130372;1267;108999;-74
2022/09/23 08:53:46;;;;;;;13.90;11.40;;;;;;;13.32;78.82;100633.95;130402;1267;108918;-75
2022/09/23 08:56:56;;;;;;;12.30;10.20;;;;;;;13.42;79.14;100630.69;130380;1267;108432;-75
2022/09/23 09:00:04;;;;;;;59.90;41.00;;;;;;;13.60;79.04;100632.13;130417;1267;107713;-74
2022/09/23 09:03:21;;;;;;;14.80;11.90;;;;;;;13.56;78.14;100630.41;130362;1267;108922;-76
2022/09/23 09:06:32;;;;;;;11.60;9.60;;;;;;;13.54;77.68;100630.14;130435;1267;108769;-76
2022/09/23 09:09:42;;;;;;;9.20;8.20;;;;;;;13.48;77.45;100622.36;130355;1268;108681;-75
2022/09/23 09:12:50;;;;;;;6.60;5.60;;;;;;;13.55;77.16;100621.77;130387;1267;108543;-75
2022/09/23 09:16:24;;;;;;;8.50;7.40;;;;;;;13.46;75.67;100622.38;130418;1267;109273;-74
2022/09/23 09:19:51;;;;;;;10.50;7.50;;;;;;;13.27;76.13;100617.52;130310;1267;108912;-74
2022/09/23 09:22:59;;;;;;;10.40;8.40;;;;;;;13.25;76.58;100614.39;130373;1268;108529;-75
2022/09/23 09:26:06;;;;;;;13.50;9.60;;;;;;;13.17;76.71;100612.48;130374;1267;108993;-73
2022/09/23 09:29:15;;;;;;;15.00;10.10;;;;;;;13.12;75.58;100613.80;130664;1267;108757;-74
2022/09/23 09:32:46;;;;;;;16.30;9.80;;;;;;;13.05;75.15;100611.30;130630;1267;108674;-73
2022/09/23 09:36:07;;;;;;;26.60;15.00;;;;;;;13.04;75.44;100604.09;130497;1267;108833;-73
2022/09/23 09:39:14;;;;;;;11.20;7.10;;;;;;;12.92;74.72;100600.52;130530;1267;108685;-72
2022/09/23 09:42:26;;;;;;;17.00;12.00;;;;;;;12.81;75.43;100597.75;130422;1267;108673;-73
2022/09/23 09:45:53;;;;;;;10.60;7.60;;;;;;;12.70;75.68;100593.44;130435;1267;108834;-72
2022/09/23 09:49:02;;;;;;;5.40;4.40;;;;;;;12.71;75.21;100598.17;130241;1268;108595;-73
2022/09/23 09:52:21;;;;;;;4.90;3.40;;;;;;;12.86;74.19;100589.34;130275;1267;108844;-72
2022/09/23 09:55:28;;;;;;;3.50;2.90;;;;;;;12.97;73.61;100584.29;130228;1268;109044;-74
2022/09/23 09:58:42;;;;;;;4.20;3.70;;;;;;;13.10;74.55;100584.33;130754;1268;108881;-73
2022/09/23 10:01:48;;;;;;;4.30;3.50;;;;;;;13.30;74.53;100586.30;130641;1267;108727;-71
2022/09/23 10:05:02;;;;;;;2.50;2.10;;;;;;;13.53;72.08;100579.96;130456;1267;108621;-73
2022/09/23 10:08:25;;;;;;;4.90;3.30;;;;;;;13.65;72.27;100576.88;130490;1268;108644;-73
2022/09/23 10:11:32;;;;;;;5.80;4.70;;;;;;;13.76;72.99;100572.28;130540;1266;108909;-75
2022/09/23 10:14:37;;;;;;;4.60;3.90;;;;;;;13.93;73.41;100568.54;130503;1267;108718;-73
2022/09/23 10:17:43;;;;;;;5.20;4.70;;;;;;;14.11;71.07;100566.73;130348;1267;108882;-76
2022/09/23 10:20:49;;;;;;;5.70;4.80;;;;;;;14.25;71.48;100561.86;130442;1267;109142;-72
2022/09/23 10:23:59;;;;;;;6.00;4.10;;;;;;;14.29;69.43;100560.77;130356;1268;108044;-73
2022/09/23 10:27:08;;;;;;;3.60;3.20;;;;;;;14.26;68.22;100557.26;130439;1267;107856;-74
2022/09/23 10:30:23;;;;;;;3.00;2.50;;;;;;;14.35;69.47;100554.73;130474;1267;108741;-72
2022/09/23 10:33:31;;;;;;;3.70;2.70;;;;;;;14.61;69.98;100549.96;130468;1267;108708;-73
2022/09/23 10:36:36;;;;;;;3.70;2.70;;;;;;;14.69;65.26;100547.06;130249;1267;152398;-73
2022/09/23 10:46:54;;;;;;;3.20;2.70;;;;;;;14.53;66.13;100547.38;130335;1267;108855;-73
2022/09/23 10:50:23;;;;;;;3.60;2.80;;;;;;;14.57;67.13;100541.85;130352;1267;108762;-73
2022/09/23 10:53:41;;;;;;;3.60;3.10;;;;;;;14.53;65.51;100540.10;130415;1267;108654;-72
2022/09/23 10:56:50;;;;;;;2.80;2.60;;;;;;;14.49;67.64;100532.68;130902;1268;108475;-73
2022/09/23 11:00:03;;;;;;;3.00;2.70;;;;;;;14.46;62.06;100533.45;130480;1268;108677;-73
2022/09/23 11:03:37;;;;;;;2.80;2.50;;;;;;;14.36;62.14;100531.08;130460;1267;109511;-73
2022/09/23 11:07:00;;;;;;;2.50;2.30;;;;;;;14.39;63.86;100525.16;130491;1268;108608;-72
2022/09/23 11:10:31;;;;;;;2.90;2.70;;;;;;;14.46;64.97;100522.56;130555;1267;108888;-73
2022/09/23 11:13:51;;;;;;;6.80;3.70;;;;;;;14.48;64.07;100521.25;130533;1268;109428;-72
2022/09/23 11:17:12;;;;;;;3.00;2.60;;;;;;;14.57;65.19;100519.09;130472;1267;108689;-73
2022/09/23 11:20:40;;;;;;;2.30;2.10;;;;;;;14.66;62.81;100520.79;130448;1268;108784;-73
2022/09/23 11:24:16;;;;;;;2.90;2.40;;;;;;;14.75;62.35;100514.23;130512;1267;108715;-74
2022/09/23 11:27:38;;;;;;;2.80;2.50;;;;;;;14.91;62.85;100510.61;130331;1267;108491;-73
2022/09/23 11:30:54;;;;;;;31.80;17.80;;;;;;;15.05;61.77;100503.61;130470;1267;108829;-73
2022/09/23 11:34:21;;;;;;;8.40;5.30;;;;;;;15.03;58.29;100505.23;130462;1267;108609;-73
2022/09/23 11:37:31;;;;;;;3.10;2.50;;;;;;;15.06;59.77;100502.90;130497;1268;108692;-72
2022/09/23 11:40:40;;;;;;;2.50;2.20;;;;;;;15.11;60.93;100502.89;130507;1268;107099;-72
2022/09/23 11:43:51;;;;;;;2.50;2.00;;;;;;;15.18;59.85;100495.64;130727;1267;107668;-73
2022/09/23 11:47:01;;;;;;;1.90;1.50;;;;;;;15.29;59.83;100497.76;130509;1267;108766;-73
2022/09/23 11:50:18;;;;;;;2.00;1.80;;;;;;;15.16;59.31;100504.09;132862;1266;108610;-72
2022/09/23 11:53:30;;;;;;;2.60;1.80;;;;;;;15.00;59.67;100502.33;130501;1267;108121;-72
2022/09/23 11:56:41;;;;;;;3.20;2.00;;;;;;;15.08;60.52;100499.70;130405;1267;108346;-73
2022/09/23 11:59:50;;;;;;;2.30;2.00;;;;;;;15.11;59.18;100495.80;130455;1267;110116;-73
2022/09/23 12:03:05;;;;;;;2.50;1.90;;;;;;;14.92;59.04;100497.81;130401;1267;108705;-73
2022/09/23 12:06:18;;;;;;;2.70;2.00;;;;;;;14.52;58.43;100496.13;130424;1267;108798;-73
2022/09/23 12:09:31;;;;;;;3.00;1.70;;;;;;;14.21;59.90;100491.34;130524;1266;108686;-73
2022/09/23 12:12:46;;;;;;;2.10;1.70;;;;;;;14.08;60.68;100486.34;130552;1267;108680;-72
2022/09/23 12:16:08;;;;;;;2.20;1.80;;;;;;;14.01;61.13;100485.41;130393;1267;106816;-73
2022/09/23 12:19:27;;;;;;;2.00;1.80;;;;;;;14.00;61.30;100481.38;130272;1267;108939;-73
2022/09/23 12:22:47;;;;;;;16.10;6.10;;;;;;;14.08;58.96;100479.59;130578;1267;106617;-72
2022/09/23 12:25:56;;;;;;;8.20;4.50;;;;;;;14.26;58.76;100471.73;130341;1268;108946;-73
2022/09/23 12:29:05;;;;;;;3.10;1.80;;;;;;;14.39;57.39;100476.50;130613;1267;108656;-73
2022/09/23 12:32:18;;;;;;;1.90;1.50;;;;;;;14.38;58.75;100471.39;130450;1267;108974;-73
2022/09/23 12:35:31;;;;;;;1.60;1.40;;;;;;;14.38;57.51;100467.44;130505;1266;108818;-73
2022/09/23 12:38:40;;;;;;;1.90;1.50;;;;;;;14.45;56.84;100466.08;130518;1268;108944;-72
2022/09/23 12:41:50;;;;;;;3.30;1.80;;;;;;;14.46;58.82;100469.36;130436;1267;106971;-74
2022/09/23 12:45:33;;;;;;;2.80;2.10;;;;;;;14.52;59.15;100474.59;130371;1267;108715;-72
2022/09/23 12:49:01;;;;;;;3.70;2.60;;;;;;;14.58;59.40;100476.92;130528;1267;108957;-73
2022/09/23 12:52:26;;;;;;;5.10;3.70;;;;;;;14.66;59.07;100479.06;130458;1268;108999;-72
2022/09/23 12:55:50;;;;;;;3.10;2.70;;;;;;;14.67;59.40;100473.94;130310;1268;107668;-72
2022/09/23 12:59:21;;;;;;;3.40;2.80;;;;;;;14.51;59.11;100474.66;130459;1267;108956;-74
2022/09/23 13:02:31;;;;;;;5.00;2.60;;;;;;;14.29;59.19;100473.17;130439;1267;108544;-72
2022/09/23 13:09:15;;;;;;;4.90;3.80;;;;;;;14.04;59.71;100468.46;130409;1267;108513;-74
2022/09/23 13:12:25;;;;;;;58.90;38.10;;;;;;;14.10;59.30;100464.16;130384;1266;108639;-75
2022/09/23 13:15:34;;;;;;;5.80;4.40;;;;;;;14.19;59.21;100457.99;130425;1267;108794;-74
2022/09/23 13:19:00;;;;;;;6.70;4.70;;;;;;;14.18;57.86;100451.33;130389;1267;107979;-73
2022/09/23 13:22:10;;;;;;;4.50;2.70;;;;;;;14.16;57.46;100452.79;130360;1267;108675;-73
2022/09/23 13:25:22;;;;;;;6.20;5.30;;;;;;;14.01;57.77;100448.68;130302;1268;108610;-75
2022/09/23 13:28:39;;;;;;;6.00;5.00;;;;;;;13.88;58.76;100443.91;130380;1267;108841;-73
2022/09/23 13:31:45;;;;;;;6.70;6.00;;;;;;;13.76;59.13;100436.63;130319;1267;108716;-74
2022/09/23 13:34:58;;;;;;;5.20;3.90;;;;;;;13.66;59.35;100429.83;130389;1267;107531;-73
2022/09/23 13:38:11;;;;;;;36.10;20.40;;;;;;;13.60;59.59;100425.88;130399;1267;108742;-74
2022/09/23 13:41:20;;;;;;;40.80;22.80;;;;;;;13.57;60.05;100423.84;130367;1268;108691;-73
2022/09/23 13:44:27;;;;;;;30.20;19.50;;;;;;;13.58;59.66;100423.45;130337;1267;107670;-74
2022/09/23 13:47:36;;;;;;;19.40;10.80;;;;;;;13.52;60.38;100418.80;130307;1268;108435;-74
2022/09/23 13:50:47;;;;;;;8.90;6.10;;;;;;;13.53;60.12;100420.38;130417;1267;108648;-73
2022/09/23 13:53:57;;;;;;;11.70;6.40;;;;;;;13.60;60.18;100415.52;130414;1267;108741;-73
2022/09/23 13:57:03;;;;;;;7.20;3.80;;;;;;;13.68;57.61;100409.38;130346;1267;108667;-73
2022/09/23 14:00:21;;;;;;;12.50;6.40;;;;;;;13.72;58.79;100405.77;130312;1267;109162;-72
2022/09/23 14:03:31;;;;;;;14.80;10.20;;;;;;;13.66;58.73;100406.63;130406;1266;108757;-72
2022/09/23 14:06:41;;;;;;;11.20;6.40;;;;;;;13.63;59.68;100402.71;130328;1267;108841;-72
2022/09/23 14:09:48;;;;;;;4.80;3.50;;;;;;;13.60;58.88;100403.91;130392;1267;107726;-73
2022/09/23 14:12:57;;;;;;;5.00;3.70;;;;;;;13.52;58.40;100403.13;130309;1267;108107;-72
2022/09/23 14:16:03;;;;;;;4.20;2.80;;;;;;;13.48;58.73;100406.11;130301;1267;108835;-72
2022/09/23 14:19:17;;;;;;;14.10;11.80;;;;;;;13.51;58.62;100403.39;130291;1268;108630;-73
2022/09/23 14:22:28;;;;;;;18.20;16.20;;;;;;;13.60;58.86;100395.70;130304;1267;108751;-73
2022/09/23 14:25:34;;;;;;;5.50;4.70;;;;;;;13.71;59.11;100394.81;130395;1267;108582;-73
2022/09/23 14:28:40;;;;;;;3.30;2.70;;;;;;;13.76;57.24;100388.38;130494;1267;108599;-72
2022/09/23 14:31:55;;;;;;;9.10;5.40;;;;;;;13.73;56.54;100386.74;130513;1267;108686;-71
2022/09/23 14:35:20;;;;;;;7.70;6.00;;;;;;;13.68;55.35;100383.46;130504;1267;108714;-75
2022/09/23 14:41:52;;;;;;;3.00;1.70;;;;;;;13.62;55.86;100376.13;130325;1268;106979;-75
2022/09/23 14:44:58;;;;;;;7.90;4.10;;;;;;;13.59;54.98;100373.73;130364;1267;108004;-76
2022/09/23 14:48:08;;;;;;;9.40;6.60;;;;;;;13.58;56.44;100366.15;131088;1267;108588;-74